sensor_id;sensor_type;location;lat;lon;timestamp;temperature;humidity
1283;DHT22;634;48.810;9.148;2022-08-30T00:00:03;20.30;82.40
1283;DHT22;634;48.810;9.148;2022-08-30T00:02:46;20.30;83.10
1283;DHT22;634;48.810;9.148;2022-08-30T00:05:16;20.40;83.10
1283;DHT22;634;48.810;9.148;2022-08-30T00:07:45;20.40;82.70
1283;DHT22;634;48.810;9.148;2022-08-30T00:10:15;20.40;82.30
1283;DHT22;634;48.810;9.148;2022-08-30T00:12:48;20.30;84.10
1283;DHT22;634;48.810;9.148;2022-08-30T00:15:18;20.30;83.90
1283;DHT22;634;48.810;9.148;2022-08-30T00:17:47;20.20;84.00
1283;DHT22;634;48.810;9.148;2022-08-30T00:20:19;20.30;83.30
1283;DHT22;634;48.810;9.148;2022-08-30T00:22:49;20.30;82.50
1283;DHT22;634;48.810;9.148;2022-08-30T00:25:22;20.40;82.80
1283;DHT22;634;48.810;9.148;2022-08-30T00:27:54;20.30;83.10
1283;DHT22;634;48.810;9.148;2022-08-30T00:30:24;20.10;84.30
1283;DHT22;634;48.810;9.148;2022-08-30T00:32:54;20.10;83.80
1283;DHT22;634;48.810;9.148;2022-08-30T00:35:24;20.10;85.10
1283;DHT22;634;48.810;9.148;2022-08-30T00:37:56;19.70;87.00
1283;DHT22;634;48.810;9.148;2022-08-30T00:40:26;19.70;89.10
1283;DHT22;634;48.810;9.148;2022-08-30T00:42:59;19.80;87.70
1283;DHT22;634;48.810;9.148;2022-08-30T00:45:31;19.90;87.10
1283;DHT22;634;48.810;9.148;2022-08-30T00:48:02;19.80;86.90
1283;DHT22;634;48.810;9.148;2022-08-30T00:50:36;19.90;87.90
1283;DHT22;634;48.810;9.148;2022-08-30T00:53:08;19.90;87.70
1283;DHT22;634;48.810;9.148;2022-08-30T00:55:39;20.00;87.80
1283;DHT22;634;48.810;9.148;2022-08-30T00:58:13;20.00;88.00
1283;DHT22;634;48.810;9.148;2022-08-30T01:00:49;19.90;89.90
1283;DHT22;634;48.810;9.148;2022-08-30T01:03:20;19.80;90.60
1283;DHT22;634;48.810;9.148;2022-08-30T01:05:50;19.70;91.70
1283;DHT22;634;48.810;9.148;2022-08-30T01:08:20;19.70;91.80
1283;DHT22;634;48.810;9.148;2022-08-30T01:10:50;19.50;93.00
1283;DHT22;634;48.810;9.148;2022-08-30T01:13:26;19.30;94.50
1283;DHT22;634;48.810;9.148;2022-08-30T01:15:56;19.40;95.20
1283;DHT22;634;48.810;9.148;2022-08-30T01:18:26;19.60;94.70
1283;DHT22;634;48.810;9.148;2022-08-30T01:21:02;19.50;95.00
1283;DHT22;634;48.810;9.148;2022-08-30T01:23:39;19.60;94.90
1283;DHT22;634;48.810;9.148;2022-08-30T01:26:11;19.60;95.40
1283;DHT22;634;48.810;9.148;2022-08-30T01:28:45;19.50;96.30
1283;DHT22;634;48.810;9.148;2022-08-30T01:31:16;19.20;97.70
1283;DHT22;634;48.810;9.148;2022-08-30T01:33:45;19.20;98.60
1283;DHT22;634;48.810;9.148;2022-08-30T01:36:15;19.20;99.10
1283;DHT22;634;48.810;9.148;2022-08-30T01:38:51;19.30;98.90
1283;DHT22;634;48.810;9.148;2022-08-30T01:41:25;19.10;99.90
1283;DHT22;634;48.810;9.148;2022-08-30T01:43:56;18.90;99.90
1283;DHT22;634;48.810;9.148;2022-08-30T01:46:28;19.30;99.90
1283;DHT22;634;48.810;9.148;2022-08-30T01:49:02;19.50;98.00
1283;DHT22;634;48.810;9.148;2022-08-30T01:51:32;19.60;96.80
1283;DHT22;634;48.810;9.148;2022-08-30T01:54:05;19.40;96.60
1283;DHT22;634;48.810;9.148;2022-08-30T01:56:35;19.30;97.80
1283;DHT22;634;48.810;9.148;2022-08-30T01:59:05;19.40;97.80
1283;DHT22;634;48.810;9.148;2022-08-30T02:01:35;19.40;97.40
1283;DHT22;634;48.810;9.148;2022-08-30T02:04:06;19.30;97.50
1283;DHT22;634;48.810;9.148;2022-08-30T02:06:37;19.40;97.00
1283;DHT22;634;48.810;9.148;2022-08-30T02:09:10;19.50;96.60
1283;DHT22;634;48.810;9.148;2022-08-30T02:11:40;19.30;97.40
1283;DHT22;634;48.810;9.148;2022-08-30T02:14:10;19.20;98.10
1283;DHT22;634;48.810;9.148;2022-08-30T02:16:40;19.20;98.70
1283;DHT22;634;48.810;9.148;2022-08-30T02:19:10;19.20;98.90
1283;DHT22;634;48.810;9.148;2022-08-30T02:21:39;19.00;99.90
1283;DHT22;634;48.810;9.148;2022-08-30T02:24:11;18.90;99.90
1283;DHT22;634;48.810;9.148;2022-08-30T02:26:41;18.80;99.90
1283;DHT22;634;48.810;9.148;2022-08-30T02:29:11;18.90;99.90
1283;DHT22;634;48.810;9.148;2022-08-30T02:31:40;18.90;99.90
1283;DHT22;634;48.810;9.148;2022-08-30T02:34:10;19.10;99.90
1283;DHT22;634;48.810;9.148;2022-08-30T02:36:39;19.10;99.90
1283;DHT22;634;48.810;9.148;2022-08-30T02:39:12;19.10;99.90
1283;DHT22;634;48.810;9.148;2022-08-30T02:41:42;19.20;99.90
1283;DHT22;634;48.810;9.148;2022-08-30T02:44:11;19.30;99.90
1283;DHT22;634;48.810;9.148;2022-08-30T02:46:41;19.30;99.90
1283;DHT22;634;48.810;9.148;2022-08-30T02:49:11;19.10;99.90
1283;DHT22;634;48.810;9.148;2022-08-30T02:51:40;19.10;99.90
1283;DHT22;634;48.810;9.148;2022-08-30T02:54:12;18.80;99.90
1283;DHT22;634;48.810;9.148;2022-08-30T02:56:45;18.80;99.90
1283;DHT22;634;48.810;9.148;2022-08-30T02:59:16;18.80;99.90
1283;DHT22;634;48.810;9.148;2022-08-30T03:01:46;19.00;99.90
1283;DHT22;634;48.810;9.148;2022-08-30T03:04:15;19.10;99.90
1283;DHT22;634;48.810;9.148;2022-08-30T03:06:45;19.30;99.90
1283;DHT22;634;48.810;9.148;2022-08-30T03:09:17;19.30;99.90
1283;DHT22;634;48.810;9.148;2022-08-30T03:11:47;19.10;99.90
1283;DHT22;634;48.810;9.148;2022-08-30T03:14:17;18.90;99.90
1283;DHT22;634;48.810;9.148;2022-08-30T03:16:46;18.80;99.90
1283;DHT22;634;48.810;9.148;2022-08-30T03:19:16;18.90;99.90
1283;DHT22;634;48.810;9.148;2022-08-30T03:21:45;19.00;99.90
1283;DHT22;634;48.810;9.148;2022-08-30T03:24:18;19.00;99.90
1283;DHT22;634;48.810;9.148;2022-08-30T03:26:48;19.20;99.90
1283;DHT22;634;48.810;9.148;2022-08-30T03:29:17;18.90;99.90
1283;DHT22;634;48.810;9.148;2022-08-30T03:31:48;18.70;99.90
1283;DHT22;634;48.810;9.148;2022-08-30T03:34:18;18.70;99.90
1283;DHT22;634;48.810;9.148;2022-08-30T03:36:48;18.70;99.90
1283;DHT22;634;48.810;9.148;2022-08-30T03:39:22;18.60;99.90
1283;DHT22;634;48.810;9.148;2022-08-30T03:41:51;18.60;99.90
1283;DHT22;634;48.810;9.148;2022-08-30T03:44:21;18.70;99.90
1283;DHT22;634;48.810;9.148;2022-08-30T03:46:51;18.70;99.90
1283;DHT22;634;48.810;9.148;2022-08-30T03:49:21;18.80;99.90
1283;DHT22;634;48.810;9.148;2022-08-30T03:51:51;18.90;99.90
1283;DHT22;634;48.810;9.148;2022-08-30T03:54:23;18.70;99.90
1283;DHT22;634;48.810;9.148;2022-08-30T03:56:53;18.60;99.90
1283;DHT22;634;48.810;9.148;2022-08-30T03:59:22;18.50;99.90
1283;DHT22;634;48.810;9.148;2022-08-30T04:01:52;18.60;99.90
1283;DHT22;634;48.810;9.148;2022-08-30T04:04:21;18.70;99.90
1283;DHT22;634;48.810;9.148;2022-08-30T04:06:51;18.70;99.90
1283;DHT22;634;48.810;9.148;2022-08-30T04:09:23;18.70;99.90
1283;DHT22;634;48.810;9.148;2022-08-30T04:11:53;18.40;99.90
1283;DHT22;634;48.810;9.148;2022-08-30T04:14:22;18.50;99.90
1283;DHT22;634;48.810;9.148;2022-08-30T04:16:52;18.30;99.90
1283;DHT22;634;48.810;9.148;2022-08-30T04:19:21;18.00;99.90
1283;DHT22;634;48.810;9.148;2022-08-30T04:21:51;18.00;99.90
1283;DHT22;634;48.810;9.148;2022-08-30T04:24:23;18.20;99.90
1283;DHT22;634;48.810;9.148;2022-08-30T04:26:52;18.40;99.90
1283;DHT22;634;48.810;9.148;2022-08-30T04:29:24;18.40;99.90
1283;DHT22;634;48.810;9.148;2022-08-30T04:31:54;18.20;99.90
1283;DHT22;634;48.810;9.148;2022-08-30T04:34:24;18.10;99.90
1283;DHT22;634;48.810;9.148;2022-08-30T04:36:56;18.20;99.90
1283;DHT22;634;48.810;9.148;2022-08-30T04:39:28;18.20;99.90
1283;DHT22;634;48.810;9.148;2022-08-30T04:41:58;18.20;99.90
1283;DHT22;634;48.810;9.148;2022-08-30T04:44:29;18.00;99.90
1283;DHT22;634;48.810;9.148;2022-08-30T04:46:59;18.00;99.90
1283;DHT22;634;48.810;9.148;2022-08-30T04:49:29;18.00;99.90
1283;DHT22;634;48.810;9.148;2022-08-30T04:51:59;18.10;99.90
1283;DHT22;634;48.810;9.148;2022-08-30T04:54:31;18.20;99.90
1283;DHT22;634;48.810;9.148;2022-08-30T04:57:01;18.20;99.90
1283;DHT22;634;48.810;9.148;2022-08-30T04:59:30;18.20;99.90
1283;DHT22;634;48.810;9.148;2022-08-30T05:02:00;18.20;99.90
1283;DHT22;634;48.810;9.148;2022-08-30T05:04:29;18.00;99.90
1283;DHT22;634;48.810;9.148;2022-08-30T05:06:59;18.00;99.90
1283;DHT22;634;48.810;9.148;2022-08-30T05:09:31;18.10;99.90
1283;DHT22;634;48.810;9.148;2022-08-30T05:12:03;18.10;99.90
1283;DHT22;634;48.810;9.148;2022-08-30T05:14:35;18.20;99.90
1283;DHT22;634;48.810;9.148;2022-08-30T05:17:04;18.30;99.90
1283;DHT22;634;48.810;9.148;2022-08-30T05:19:36;18.40;99.90
1283;DHT22;634;48.810;9.148;2022-08-30T05:22:06;18.40;99.90
1283;DHT22;634;48.810;9.148;2022-08-30T05:24:38;18.50;99.90
1283;DHT22;634;48.810;9.148;2022-08-30T05:27:08;18.40;99.90
1283;DHT22;634;48.810;9.148;2022-08-30T05:29:37;18.50;99.90
1283;DHT22;634;48.810;9.148;2022-08-30T05:32:07;18.70;99.90
1283;DHT22;634;48.810;9.148;2022-08-30T05:34:37;18.90;99.90
1283;DHT22;634;48.810;9.148;2022-08-30T05:37:09;19.10;99.90
1283;DHT22;634;48.810;9.148;2022-08-30T05:39:41;19.20;99.90
1283;DHT22;634;48.810;9.148;2022-08-30T05:42:11;19.50;99.90
1283;DHT22;634;48.810;9.148;2022-08-30T05:44:43;19.60;99.90
1283;DHT22;634;48.810;9.148;2022-08-30T05:47:13;19.70;99.90
1283;DHT22;634;48.810;9.148;2022-08-30T05:49:42;19.70;99.90
1283;DHT22;634;48.810;9.148;2022-08-30T05:52:12;19.80;99.90
1283;DHT22;634;48.810;9.148;2022-08-30T05:54:51;19.90;99.90
1283;DHT22;634;48.810;9.148;2022-08-30T05:57:21;20.10;99.20
1283;DHT22;634;48.810;9.148;2022-08-30T05:59:51;20.10;99.30
1283;DHT22;634;48.810;9.148;2022-08-30T06:02:20;20.10;99.50
1283;DHT22;634;48.810;9.148;2022-08-30T06:04:50;20.10;99.10
1283;DHT22;634;48.810;9.148;2022-08-30T06:07:19;20.20;98.80
1283;DHT22;634;48.810;9.148;2022-08-30T06:09:51;20.20;98.50
1283;DHT22;634;48.810;9.148;2022-08-30T06:12:21;20.40;97.80
1283;DHT22;634;48.810;9.148;2022-08-30T06:14:51;20.30;96.90
1283;DHT22;634;48.810;9.148;2022-08-30T06:17:20;20.50;96.60
1283;DHT22;634;48.810;9.148;2022-08-30T06:19:50;20.60;95.50
1283;DHT22;634;48.810;9.148;2022-08-30T06:22:19;20.70;94.00
1283;DHT22;634;48.810;9.148;2022-08-30T06:24:51;20.70;93.10
1283;DHT22;634;48.810;9.148;2022-08-30T06:27:21;20.80;93.10
1283;DHT22;634;48.810;9.148;2022-08-30T06:29:51;21.00;92.10
1283;DHT22;634;48.810;9.148;2022-08-30T06:32:21;21.20;91.60
1283;DHT22;634;48.810;9.148;2022-08-30T06:34:51;21.40;90.30
1283;DHT22;634;48.810;9.148;2022-08-30T06:37:23;21.60;89.20
1283;DHT22;634;48.810;9.148;2022-08-30T06:39:56;21.80;87.90
1283;DHT22;634;48.810;9.148;2022-08-30T06:42:26;22.00;87.30
1283;DHT22;634;48.810;9.148;2022-08-30T06:45:02;22.20;87.70
1283;DHT22;634;48.810;9.148;2022-08-30T06:47:34;22.30;85.00
1283;DHT22;634;48.810;9.148;2022-08-30T06:50:05;22.50;83.10
1283;DHT22;634;48.810;9.148;2022-08-30T06:52:35;22.70;82.90
1283;DHT22;634;48.810;9.148;2022-08-30T06:55:08;22.90;82.00
1283;DHT22;634;48.810;9.148;2022-08-30T06:57:38;23.00;80.80
1283;DHT22;634;48.810;9.148;2022-08-30T07:00:12;23.10;78.00
1283;DHT22;634;48.810;9.148;2022-08-30T07:02:43;23.10;78.30
1283;DHT22;634;48.810;9.148;2022-08-30T07:05:13;23.00;79.20
1283;DHT22;634;48.810;9.148;2022-08-30T07:07:43;23.20;79.90
1283;DHT22;634;48.810;9.148;2022-08-30T07:10:15;23.40;78.40
1283;DHT22;634;48.810;9.148;2022-08-30T07:12:45;23.60;77.20
1283;DHT22;634;48.810;9.148;2022-08-30T07:15:15;23.70;75.80
1283;DHT22;634;48.810;9.148;2022-08-30T07:17:48;23.80;74.50
1283;DHT22;634;48.810;9.148;2022-08-30T07:20:30;24.10;74.60
1283;DHT22;634;48.810;9.148;2022-08-30T07:23:00;24.20;72.70
1283;DHT22;634;48.810;9.148;2022-08-30T07:25:32;24.50;70.80
1283;DHT22;634;48.810;9.148;2022-08-30T07:28:02;24.60;70.10
1283;DHT22;634;48.810;9.148;2022-08-30T07:30:32;24.70;68.60
1283;DHT22;634;48.810;9.148;2022-08-30T07:33:02;24.90;68.40
1283;DHT22;634;48.810;9.148;2022-08-30T07:35:32;25.10;67.40
1283;DHT22;634;48.810;9.148;2022-08-30T07:38:02;25.30;65.50
1283;DHT22;634;48.810;9.148;2022-08-30T07:40:37;25.50;65.40
1283;DHT22;634;48.810;9.148;2022-08-30T07:43:09;25.70;63.60
1283;DHT22;634;48.810;9.148;2022-08-30T07:45:39;25.90;63.20
1283;DHT22;634;48.810;9.148;2022-08-30T07:48:09;26.10;61.90
1283;DHT22;634;48.810;9.148;2022-08-30T07:50:43;26.40;60.70
1283;DHT22;634;48.810;9.148;2022-08-30T07:53:13;26.60;59.40
1283;DHT22;634;48.810;9.148;2022-08-30T07:55:46;26.70;59.20
1283;DHT22;634;48.810;9.148;2022-08-30T07:58:15;26.80;58.90
1283;DHT22;634;48.810;9.148;2022-08-30T08:00:45;26.70;59.00
1283;DHT22;634;48.810;9.148;2022-08-30T08:03:15;26.90;58.60
1283;DHT22;634;48.810;9.148;2022-08-30T08:05:45;26.90;58.00
1283;DHT22;634;48.810;9.148;2022-08-30T08:08:14;26.90;58.00
1283;DHT22;634;48.810;9.148;2022-08-30T08:10:46;26.90;57.90
1283;DHT22;634;48.810;9.148;2022-08-30T08:13:18;26.80;58.10
1283;DHT22;634;48.810;9.148;2022-08-30T08:15:49;27.00;58.40
1283;DHT22;634;48.810;9.148;2022-08-30T08:18:18;27.10;57.60
1283;DHT22;634;48.810;9.148;2022-08-30T08:20:48;27.30;57.00
1283;DHT22;634;48.810;9.148;2022-08-30T08:23:17;27.30;56.50
1283;DHT22;634;48.810;9.148;2022-08-30T08:25:50;27.10;56.60
1283;DHT22;634;48.810;9.148;2022-08-30T08:28:22;27.20;57.00
1283;DHT22;634;48.810;9.148;2022-08-30T08:30:52;27.40;57.10
1283;DHT22;634;48.810;9.148;2022-08-30T08:33:22;27.60;56.40
1283;DHT22;634;48.810;9.148;2022-08-30T08:35:52;27.80;55.90
1283;DHT22;634;48.810;9.148;2022-08-30T08:38:21;28.10;55.80
1283;DHT22;634;48.810;9.148;2022-08-30T08:41:00;28.50;54.30
1283;DHT22;634;48.810;9.148;2022-08-30T08:43:33;28.60;54.10
1283;DHT22;634;48.810;9.148;2022-08-30T08:46:08;28.90;53.20
1283;DHT22;634;48.810;9.148;2022-08-30T08:48:42;29.10;53.30
1283;DHT22;634;48.810;9.148;2022-08-30T08:51:20;29.50;52.80
1283;DHT22;634;48.810;9.148;2022-08-30T08:54:10;29.70;52.10
1283;DHT22;634;48.810;9.148;2022-08-30T08:56:42;30.10;51.20
1283;DHT22;634;48.810;9.148;2022-08-30T08:59:14;30.40;50.70
1283;DHT22;634;48.810;9.148;2022-08-30T09:01:46;30.70;49.80
1283;DHT22;634;48.810;9.148;2022-08-30T09:04:19;31.00;49.30
1283;DHT22;634;48.810;9.148;2022-08-30T09:06:58;31.20;49.00
1283;DHT22;634;48.810;9.148;2022-08-30T09:09:32;31.50;48.70
1283;DHT22;634;48.810;9.148;2022-08-30T09:12:06;31.60;47.50
1283;DHT22;634;48.810;9.148;2022-08-30T09:14:40;32.00;47.20
1283;DHT22;634;48.810;9.148;2022-08-30T09:17:15;32.30;46.30
1283;DHT22;634;48.810;9.148;2022-08-30T09:19:57;32.50;46.10
1283;DHT22;634;48.810;9.148;2022-08-30T09:22:33;32.90;45.30
1283;DHT22;634;48.810;9.148;2022-08-30T09:25:06;33.00;45.10
1283;DHT22;634;48.810;9.148;2022-08-30T09:27:44;33.30;44.50
1283;DHT22;634;48.810;9.148;2022-08-30T09:30:18;33.80;43.50
1283;DHT22;634;48.810;9.148;2022-08-30T09:32:53;34.00;42.20
1283;DHT22;634;48.810;9.148;2022-08-30T09:35:33;34.20;42.40
1283;DHT22;634;48.810;9.148;2022-08-30T09:38:05;34.50;41.70
1283;DHT22;634;48.810;9.148;2022-08-30T09:40:41;35.00;41.10
1283;DHT22;634;48.810;9.148;2022-08-30T09:43:22;35.20;40.80
1283;DHT22;634;48.810;9.148;2022-08-30T09:46:08;35.60;39.40
1283;DHT22;634;48.810;9.148;2022-08-30T09:48:40;36.10;39.10
1283;DHT22;634;48.810;9.148;2022-08-30T09:51:32;36.20;37.80
1283;DHT22;634;48.810;9.148;2022-08-30T09:54:14;36.60;37.90
1283;DHT22;634;48.810;9.148;2022-08-30T09:56:54;36.60;37.20
1283;DHT22;634;48.810;9.148;2022-08-30T09:59:40;36.50;37.40
1283;DHT22;634;48.810;9.148;2022-08-30T10:02:35;36.40;38.00
1283;DHT22;634;48.810;9.148;2022-08-30T10:05:13;36.60;38.00
1283;DHT22;634;48.810;9.148;2022-08-30T10:07:49;36.80;37.00
1283;DHT22;634;48.810;9.148;2022-08-30T10:10:28;36.80;37.40
1283;DHT22;634;48.810;9.148;2022-08-30T10:13:09;36.60;37.00
1283;DHT22;634;48.810;9.148;2022-08-30T10:15:47;37.10;35.90
1283;DHT22;634;48.810;9.148;2022-08-30T10:18:25;37.50;34.40
1283;DHT22;634;48.810;9.148;2022-08-30T10:21:07;37.80;34.20
1283;DHT22;634;48.810;9.148;2022-08-30T10:23:43;37.50;34.50
1283;DHT22;634;48.810;9.148;2022-08-30T10:26:23;37.00;35.10
1283;DHT22;634;48.810;9.148;2022-08-30T10:29:00;36.90;35.00
1283;DHT22;634;48.810;9.148;2022-08-30T10:31:41;37.30;34.60
1283;DHT22;634;48.810;9.148;2022-08-30T10:34:20;38.30;32.10
1283;DHT22;634;48.810;9.148;2022-08-30T10:36:57;38.70;32.70
1283;DHT22;634;48.810;9.148;2022-08-30T10:39:36;38.80;30.90
1283;DHT22;634;48.810;9.148;2022-08-30T10:42:11;39.40;31.10
1283;DHT22;634;48.810;9.148;2022-08-30T10:44:47;39.70;29.30
1283;DHT22;634;48.810;9.148;2022-08-30T10:47:27;39.30;29.40
1283;DHT22;634;48.810;9.148;2022-08-30T10:50:05;39.00;30.50
1283;DHT22;634;48.810;9.148;2022-08-30T10:52:41;38.60;30.50
1283;DHT22;634;48.810;9.148;2022-08-30T10:55:16;39.10;29.30
1283;DHT22;634;48.810;9.148;2022-08-30T10:57:47;39.10;29.90
1283;DHT22;634;48.810;9.148;2022-08-30T11:00:25;39.10;29.10
1283;DHT22;634;48.810;9.148;2022-08-30T11:03:26;39.10;28.00
1283;DHT22;634;48.810;9.148;2022-08-30T11:06:10;38.40;28.60
1283;DHT22;634;48.810;9.148;2022-08-30T11:09:16;38.10;28.50
1283;DHT22;634;48.810;9.148;2022-08-30T11:14:54;40.60;27.70
1283;DHT22;634;48.810;9.148;2022-08-30T11:17:30;41.50;27.30
1283;DHT22;634;48.810;9.148;2022-08-30T11:20:05;41.50;28.00
1283;DHT22;634;48.810;9.148;2022-08-30T11:25:50;40.60;28.70
1283;DHT22;634;48.810;9.148;2022-08-30T11:29:01;40.80;28.80
1283;DHT22;634;48.810;9.148;2022-08-30T11:31:36;41.50;28.30
1283;DHT22;634;48.810;9.148;2022-08-30T11:34:07;41.80;27.90
1283;DHT22;634;48.810;9.148;2022-08-30T11:37:06;41.80;28.00
1283;DHT22;634;48.810;9.148;2022-08-30T11:40:05;41.80;27.60
1283;DHT22;634;48.810;9.148;2022-08-30T11:42:41;41.40;28.20
1283;DHT22;634;48.810;9.148;2022-08-30T11:48:41;40.10;29.00
1283;DHT22;634;48.810;9.148;2022-08-30T11:54:33;38.50;30.80
1283;DHT22;634;48.810;9.148;2022-08-30T11:57:13;37.50;31.50
1283;DHT22;634;48.810;9.148;2022-08-30T11:59:54;36.80;32.70
1283;DHT22;634;48.810;9.148;2022-08-30T12:02:53;36.30;33.80
1283;DHT22;634;48.810;9.148;2022-08-30T12:05:46;35.80;33.90
1283;DHT22;634;48.810;9.148;2022-08-30T12:08:43;35.60;34.60
1283;DHT22;634;48.810;9.148;2022-08-30T12:14:37;35.30;34.60
1283;DHT22;634;48.810;9.148;2022-08-30T12:17:17;34.00;36.00
1283;DHT22;634;48.810;9.148;2022-08-30T12:20:00;33.40;36.70
1283;DHT22;634;48.810;9.148;2022-08-30T12:22:31;33.50;36.70
1283;DHT22;634;48.810;9.148;2022-08-30T12:25:18;33.30;37.10
1283;DHT22;634;48.810;9.148;2022-08-30T12:27:48;32.90;37.20
1283;DHT22;634;48.810;9.148;2022-08-30T12:30:26;33.40;37.00
1283;DHT22;634;48.810;9.148;2022-08-30T12:32:56;33.80;36.70
1283;DHT22;634;48.810;9.148;2022-08-30T12:35:26;33.90;36.30
1283;DHT22;634;48.810;9.148;2022-08-30T12:37:58;34.30;36.40
1283;DHT22;634;48.810;9.148;2022-08-30T12:40:29;34.90;36.00
1283;DHT22;634;48.810;9.148;2022-08-30T12:43:03;35.50;34.50
1283;DHT22;634;48.810;9.148;2022-08-30T12:45:37;36.30;34.20
1283;DHT22;634;48.810;9.148;2022-08-30T12:48:12;37.20;32.70
1283;DHT22;634;48.810;9.148;2022-08-30T12:50:46;38.10;31.60
1283;DHT22;634;48.810;9.148;2022-08-30T12:53:24;38.80;30.00
1283;DHT22;634;48.810;9.148;2022-08-30T12:56:00;39.40;29.70
1283;DHT22;634;48.810;9.148;2022-08-30T12:58:35;39.50;29.90
1283;DHT22;634;48.810;9.148;2022-08-30T13:01:29;38.80;29.40
1283;DHT22;634;48.810;9.148;2022-08-30T13:04:01;37.90;30.90
1283;DHT22;634;48.810;9.148;2022-08-30T13:06:47;37.60;32.00
1283;DHT22;634;48.810;9.148;2022-08-30T13:09:23;37.80;31.30
1283;DHT22;634;48.810;9.148;2022-08-30T13:11:55;38.70;30.00
1283;DHT22;634;48.810;9.148;2022-08-30T13:14:36;39.20;29.80
1283;DHT22;634;48.810;9.148;2022-08-30T13:17:21;39.00;29.40
1283;DHT22;634;48.810;9.148;2022-08-30T13:19:58;39.10;29.40
1283;DHT22;634;48.810;9.148;2022-08-30T13:22:32;39.30;29.80
1283;DHT22;634;48.810;9.148;2022-08-30T13:25:03;40.10;28.80
1283;DHT22;634;48.810;9.148;2022-08-30T13:27:35;40.30;28.80
1283;DHT22;634;48.810;9.148;2022-08-30T13:30:10;39.50;28.90
1283;DHT22;634;48.810;9.148;2022-08-30T13:32:46;39.00;29.40
1283;DHT22;634;48.810;9.148;2022-08-30T13:35:19;38.90;29.50
1283;DHT22;634;48.810;9.148;2022-08-30T13:37:49;38.90;29.30
1283;DHT22;634;48.810;9.148;2022-08-30T13:40:20;38.50;29.40
1283;DHT22;634;48.810;9.148;2022-08-30T13:42:50;38.00;30.00
1283;DHT22;634;48.810;9.148;2022-08-30T13:45:20;37.00;31.60
1283;DHT22;634;48.810;9.148;2022-08-30T13:47:52;36.30;32.00
1283;DHT22;634;48.810;9.148;2022-08-30T13:50:22;35.80;32.90
1283;DHT22;634;48.810;9.148;2022-08-30T13:52:54;35.20;34.40
1283;DHT22;634;48.810;9.148;2022-08-30T13:55:23;35.00;34.80
1283;DHT22;634;48.810;9.148;2022-08-30T13:57:55;34.80;34.90
1283;DHT22;634;48.810;9.148;2022-08-30T14:00:25;34.40;35.70
1283;DHT22;634;48.810;9.148;2022-08-30T14:02:57;34.30;36.00
1283;DHT22;634;48.810;9.148;2022-08-30T14:05:29;34.10;36.10
1283;DHT22;634;48.810;9.148;2022-08-30T14:07:59;34.00;36.40
1283;DHT22;634;48.810;9.148;2022-08-30T14:10:30;33.80;36.60
1283;DHT22;634;48.810;9.148;2022-08-30T14:13:00;33.60;37.20
1283;DHT22;634;48.810;9.148;2022-08-30T14:15:31;33.50;36.80
1283;DHT22;634;48.810;9.148;2022-08-30T14:18:03;33.30;37.40
1283;DHT22;634;48.810;9.148;2022-08-30T14:20:34;33.40;37.10
1283;DHT22;634;48.810;9.148;2022-08-30T14:23:04;33.20;37.00
1283;DHT22;634;48.810;9.148;2022-08-30T14:25:34;33.00;37.40
1283;DHT22;634;48.810;9.148;2022-08-30T14:28:04;33.00;37.90
1283;DHT22;634;48.810;9.148;2022-08-30T14:30:33;32.90;37.50
1283;DHT22;634;48.810;9.148;2022-08-30T14:33:07;32.80;37.50
1283;DHT22;634;48.810;9.148;2022-08-30T14:35:36;32.50;37.90
1283;DHT22;634;48.810;9.148;2022-08-30T14:38:06;32.40;38.20
1283;DHT22;634;48.810;9.148;2022-08-30T14:40:38;32.40;37.90
1283;DHT22;634;48.810;9.148;2022-08-30T14:43:07;32.40;38.00
1283;DHT22;634;48.810;9.148;2022-08-30T14:45:37;32.50;37.70
1283;DHT22;634;48.810;9.148;2022-08-30T14:48:09;32.50;38.10
1283;DHT22;634;48.810;9.148;2022-08-30T14:50:43;32.40;37.90
1283;DHT22;634;48.810;9.148;2022-08-30T14:53:13;32.40;38.00
1283;DHT22;634;48.810;9.148;2022-08-30T14:55:45;32.30;37.80
1283;DHT22;634;48.810;9.148;2022-08-30T14:58:17;32.30;37.90
1283;DHT22;634;48.810;9.148;2022-08-30T15:00:49;32.20;38.70
1283;DHT22;634;48.810;9.148;2022-08-30T15:03:21;32.00;40.00
1283;DHT22;634;48.810;9.148;2022-08-30T15:05:51;31.90;40.40
1283;DHT22;634;48.810;9.148;2022-08-30T15:08:21;31.80;40.90
1283;DHT22;634;48.810;9.148;2022-08-30T15:10:50;31.80;41.10
1283;DHT22;634;48.810;9.148;2022-08-30T15:13:20;31.80;41.10
1283;DHT22;634;48.810;9.148;2022-08-30T15:15:52;31.90;40.80
1283;DHT22;634;48.810;9.148;2022-08-30T15:18:24;31.80;40.80
1283;DHT22;634;48.810;9.148;2022-08-30T15:20:54;31.70;41.00
1283;DHT22;634;48.810;9.148;2022-08-30T15:23:23;31.50;41.00
1283;DHT22;634;48.810;9.148;2022-08-30T15:25:53;31.50;41.30
1283;DHT22;634;48.810;9.148;2022-08-30T15:28:22;31.30;41.60
1283;DHT22;634;48.810;9.148;2022-08-30T15:30:52;31.20;42.10
1283;DHT22;634;48.810;9.148;2022-08-30T15:33:24;31.00;42.10
1283;DHT22;634;48.810;9.148;2022-08-30T15:35:54;30.90;42.50
1283;DHT22;634;48.810;9.148;2022-08-30T15:38:23;30.80;42.50
1283;DHT22;634;48.810;9.148;2022-08-30T15:40:53;30.90;42.80
1283;DHT22;634;48.810;9.148;2022-08-30T15:43:25;30.80;42.50
1283;DHT22;634;48.810;9.148;2022-08-30T15:46:12;30.70;42.70
1283;DHT22;634;48.810;9.148;2022-08-30T15:48:45;30.70;42.40
1283;DHT22;634;48.810;9.148;2022-08-30T15:51:17;30.60;42.50
1283;DHT22;634;48.810;9.148;2022-08-30T15:53:47;30.50;42.90
1283;DHT22;634;48.810;9.148;2022-08-30T15:56:19;30.40;42.80
1283;DHT22;634;48.810;9.148;2022-08-30T15:58:49;30.50;43.10
1283;DHT22;634;48.810;9.148;2022-08-30T16:01:19;30.60;42.30
1283;DHT22;634;48.810;9.148;2022-08-30T16:03:51;30.60;42.80
1283;DHT22;634;48.810;9.148;2022-08-30T16:06:23;30.60;42.30
1283;DHT22;634;48.810;9.148;2022-08-30T16:08:54;30.60;42.70
1283;DHT22;634;48.810;9.148;2022-08-30T16:11:24;30.50;42.90
1283;DHT22;634;48.810;9.148;2022-08-30T16:13:55;30.30;43.10
1283;DHT22;634;48.810;9.148;2022-08-30T16:16:25;30.20;43.60
1283;DHT22;634;48.810;9.148;2022-08-30T16:18:59;30.20;43.60
1283;DHT22;634;48.810;9.148;2022-08-30T16:21:35;30.20;43.80
1283;DHT22;634;48.810;9.148;2022-08-30T16:24:07;30.10;44.10
1283;DHT22;634;48.810;9.148;2022-08-30T16:26:37;30.10;44.30
1283;DHT22;634;48.810;9.148;2022-08-30T16:29:10;29.90;44.70
1283;DHT22;634;48.810;9.148;2022-08-30T16:31:41;29.80;45.10
1283;DHT22;634;48.810;9.148;2022-08-30T16:34:16;29.70;45.20
1283;DHT22;634;48.810;9.148;2022-08-30T16:36:45;29.60;45.30
1283;DHT22;634;48.810;9.148;2022-08-30T16:39:15;29.60;45.50
1283;DHT22;634;48.810;9.148;2022-08-30T16:41:45;29.60;45.50
1283;DHT22;634;48.810;9.148;2022-08-30T16:44:15;29.70;45.50
1283;DHT22;634;48.810;9.148;2022-08-30T16:46:45;29.60;45.40
1283;DHT22;634;48.810;9.148;2022-08-30T16:49:20;29.30;45.70
1283;DHT22;634;48.810;9.148;2022-08-30T16:51:50;29.20;46.10
1283;DHT22;634;48.810;9.148;2022-08-30T16:54:20;29.20;46.30
1283;DHT22;634;48.810;9.148;2022-08-30T16:56:50;29.00;46.50
1283;DHT22;634;48.810;9.148;2022-08-30T16:59:23;29.00;46.80
1283;DHT22;634;48.810;9.148;2022-08-30T17:01:55;29.00;46.90
1283;DHT22;634;48.810;9.148;2022-08-30T17:04:27;29.00;46.90
1283;DHT22;634;48.810;9.148;2022-08-30T17:06:59;29.00;46.80
1283;DHT22;634;48.810;9.148;2022-08-30T17:09:29;29.00;46.90